sensor_id;sensor_type;location;lat;lon;timestamp;temperature;humidity
35668;DHT22;22158;59.280;17.806;2022-07-15T00:01:12;13.10;99.90
35668;DHT22;22158;59.280;17.806;2022-07-15T00:03:38;13.00;99.90
35668;DHT22;22158;59.280;17.806;2022-07-15T00:06:04;13.00;99.90
35668;DHT22;22158;59.280;17.806;2022-07-15T00:08:29;13.00;99.90
35668;DHT22;22158;59.280;17.806;2022-07-15T00:10:55;12.90;99.90
35668;DHT22;22158;59.280;17.806;2022-07-15T00:13:21;12.80;99.90
35668;DHT22;22158;59.280;17.806;2022-07-15T00:15:49;12.90;99.90
35668;DHT22;22158;59.280;17.806;2022-07-15T00:18:15;12.90;99.90
35668;DHT22;22158;59.280;17.806;2022-07-15T00:20:40;12.90;99.90
35668;DHT22;22158;59.280;17.806;2022-07-15T00:23:07;12.90;99.90
35668;DHT22;22158;59.280;17.806;2022-07-15T00:25:33;12.90;99.90
35668;DHT22;22158;59.280;17.806;2022-07-15T00:28:05;12.90;99.90
35668;DHT22;22158;59.280;17.806;2022-07-15T00:30:34;12.90;99.90
35668;DHT22;22158;59.280;17.806;2022-07-15T00:33:00;13.00;99.90
35668;DHT22;22158;59.280;17.806;2022-07-15T00:35:27;12.90;99.90
35668;DHT22;22158;59.280;17.806;2022-07-15T00:37:53;13.00;99.90
35668;DHT22;22158;59.280;17.806;2022-07-15T00:40:19;12.90;99.90
35668;DHT22;22158;59.280;17.806;2022-07-15T00:42:45;12.80;99.90
35668;DHT22;22158;59.280;17.806;2022-07-15T00:45:16;12.90;99.90
35668;DHT22;22158;59.280;17.806;2022-07-15T00:47:47;12.90;99.90
35668;DHT22;22158;59.280;17.806;2022-07-15T00:50:15;12.80;99.90
35668;DHT22;22158;59.280;17.806;2022-07-15T00:52:43;12.70;99.90
35668;DHT22;22158;59.280;17.806;2022-07-15T00:55:10;12.70;99.90
35668;DHT22;22158;59.280;17.806;2022-07-15T00:57:38;12.70;99.90
35668;DHT22;22158;59.280;17.806;2022-07-15T01:00:06;12.70;99.90
35668;DHT22;22158;59.280;17.806;2022-07-15T01:02:33;12.60;99.90
35668;DHT22;22158;59.280;17.806;2022-07-15T01:05:01;12.50;99.90
35668;DHT22;22158;59.280;17.806;2022-07-15T01:07:28;12.50;99.90
35668;DHT22;22158;59.280;17.806;2022-07-15T01:09:55;12.50;99.90
35668;DHT22;22158;59.280;17.806;2022-07-15T01:12:20;12.40;99.90
35668;DHT22;22158;59.280;17.806;2022-07-15T01:14:47;12.40;99.90
35668;DHT22;22158;59.280;17.806;2022-07-15T01:17:15;12.40;99.90
35668;DHT22;22158;59.280;17.806;2022-07-15T01:19:40;12.40;99.90
35668;DHT22;22158;59.280;17.806;2022-07-15T01:22:06;12.30;99.90
35668;DHT22;22158;59.280;17.806;2022-07-15T01:24:33;12.20;99.90
35668;DHT22;22158;59.280;17.806;2022-07-15T01:26:59;12.20;99.90
35668;DHT22;22158;59.280;17.806;2022-07-15T01:29:26;12.10;99.90
35668;DHT22;22158;59.280;17.806;2022-07-15T01:31:52;12.10;99.90
35668;DHT22;22158;59.280;17.806;2022-07-15T01:34:17;12.00;99.90
35668;DHT22;22158;59.280;17.806;2022-07-15T01:36:43;12.00;99.90
35668;DHT22;22158;59.280;17.806;2022-07-15T01:39:09;12.00;99.90
35668;DHT22;22158;59.280;17.806;2022-07-15T01:41:34;12.00;99.90
35668;DHT22;22158;59.280;17.806;2022-07-15T01:44:00;11.90;99.90
35668;DHT22;22158;59.280;17.806;2022-07-15T01:46:26;12.00;99.90
35668;DHT22;22158;59.280;17.806;2022-07-15T01:48:51;12.00;99.90
35668;DHT22;22158;59.280;17.806;2022-07-15T01:51:36;12.00;99.90
35668;DHT22;22158;59.280;17.806;2022-07-15T01:54:01;12.00;99.90
35668;DHT22;22158;59.280;17.806;2022-07-15T01:56:27;11.90;99.90
35668;DHT22;22158;59.280;17.806;2022-07-15T01:58:53;11.90;99.90
35668;DHT22;22158;59.280;17.806;2022-07-15T02:01:19;11.80;99.90
35668;DHT22;22158;59.280;17.806;2022-07-15T02:03:45;11.80;99.90
35668;DHT22;22158;59.280;17.806;2022-07-15T02:06:10;11.80;99.90
35668;DHT22;22158;59.280;17.806;2022-07-15T02:08:36;11.80;99.90
35668;DHT22;22158;59.280;17.806;2022-07-15T02:11:02;11.80;99.90
35668;DHT22;22158;59.280;17.806;2022-07-15T02:13:28;11.80;99.90
35668;DHT22;22158;59.280;17.806;2022-07-15T02:15:54;11.80;99.90
35668;DHT22;22158;59.280;17.806;2022-07-15T02:18:20;11.90;99.90
35668;DHT22;22158;59.280;17.806;2022-07-15T02:20:46;11.90;99.90
35668;DHT22;22158;59.280;17.806;2022-07-15T02:23:12;12.00;99.90
35668;DHT22;22158;59.280;17.806;2022-07-15T02:25:38;12.10;99.90
35668;DHT22;22158;59.280;17.806;2022-07-15T02:28:05;12.00;99.90
35668;DHT22;22158;59.280;17.806;2022-07-15T02:30:35;12.00;99.90
35668;DHT22;22158;59.280;17.806;2022-07-15T02:33:02;12.10;99.90
35668;DHT22;22158;59.280;17.806;2022-07-15T02:35:28;12.10;99.90
35668;DHT22;22158;59.280;17.806;2022-07-15T02:37:54;12.10;99.90
35668;DHT22;22158;59.280;17.806;2022-07-15T02:40:21;12.10;99.90
35668;DHT22;22158;59.280;17.806;2022-07-15T02:42:49;12.10;99.90
35668;DHT22;22158;59.280;17.806;2022-07-15T02:45:20;12.10;99.90
35668;DHT22;22158;59.280;17.806;2022-07-15T02:47:46;12.20;99.90
35668;DHT22;22158;59.280;17.806;2022-07-15T02:50:12;12.10;99.90
35668;DHT22;22158;59.280;17.806;2022-07-15T02:52:39;12.10;99.90
35668;DHT22;22158;59.280;17.806;2022-07-15T02:55:05;12.10;99.90
35668;DHT22;22158;59.280;17.806;2022-07-15T02:57:31;12.10;99.90
35668;DHT22;22158;59.280;17.806;2022-07-15T02:59:56;12.10;99.90
35668;DHT22;22158;59.280;17.806;2022-07-15T03:02:22;12.10;99.90
35668;DHT22;22158;59.280;17.806;2022-07-15T03:04:48;12.10;99.90
35668;DHT22;22158;59.280;17.806;2022-07-15T03:07:13;12.00;99.90
35668;DHT22;22158;59.280;17.806;2022-07-15T03:09:39;12.00;99.90
35668;DHT22;22158;59.280;17.806;2022-07-15T03:12:05;11.90;99.90
35668;DHT22;22158;59.280;17.806;2022-07-15T03:14:31;11.90;99.90
35668;DHT22;22158;59.280;17.806;2022-07-15T03:16:56;11.90;99.90
35668;DHT22;22158;59.280;17.806;2022-07-15T03:19:22;11.90;99.90
35668;DHT22;22158;59.280;17.806;2022-07-15T03:21:48;11.80;99.90
35668;DHT22;22158;59.280;17.806;2022-07-15T03:24:14;11.90;99.90
35668;DHT22;22158;59.280;17.806;2022-07-15T03:26:41;11.80;99.90
35668;DHT22;22158;59.280;17.806;2022-07-15T03:29:07;11.80;99.90
35668;DHT22;22158;59.280;17.806;2022-07-15T03:31:32;11.80;99.90
35668;DHT22;22158;59.280;17.806;2022-07-15T03:33:58;11.80;99.90
35668;DHT22;22158;59.280;17.806;2022-07-15T03:36:24;11.90;99.90
35668;DHT22;22158;59.280;17.806;2022-07-15T03:38:50;11.90;99.90
35668;DHT22;22158;59.280;17.806;2022-07-15T03:41:20;12.00;99.90
35668;DHT22;22158;59.280;17.806;2022-07-15T03:43:46;12.00;99.90
35668;DHT22;22158;59.280;17.806;2022-07-15T03:46:12;12.00;99.90
35668;DHT22;22158;59.280;17.806;2022-07-15T03:48:41;12.10;99.90
35668;DHT22;22158;59.280;17.806;2022-07-15T03:51:06;12.10;99.90
35668;DHT22;22158;59.280;17.806;2022-07-15T03:53:32;12.10;99.90
35668;DHT22;22158;59.280;17.806;2022-07-15T03:55:58;12.20;99.90
35668;DHT22;22158;59.280;17.806;2022-07-15T03:58:23;12.20;99.90
35668;DHT22;22158;59.280;17.806;2022-07-15T04:00:49;12.20;99.90
35668;DHT22;22158;59.280;17.806;2022-07-15T04:03:15;12.20;99.90
35668;DHT22;22158;59.280;17.806;2022-07-15T04:05:42;12.20;99.90
35668;DHT22;22158;59.280;17.806;2022-07-15T04:08:08;12.20;99.90
35668;DHT22;22158;59.280;17.806;2022-07-15T04:10:34;12.20;99.90
35668;DHT22;22158;59.280;17.806;2022-07-15T04:13:00;12.30;99.90
35668;DHT22;22158;59.280;17.806;2022-07-15T04:15:25;12.30;99.90
35668;DHT22;22158;59.280;17.806;2022-07-15T04:17:51;12.30;99.90
35668;DHT22;22158;59.280;17.806;2022-07-15T04:20:17;12.40;99.90
35668;DHT22;22158;59.280;17.806;2022-07-15T04:22:44;12.50;99.90
35668;DHT22;22158;59.280;17.806;2022-07-15T04:25:11;12.50;99.90
35668;DHT22;22158;59.280;17.806;2022-07-15T04:27:39;12.50;99.90
35668;DHT22;22158;59.280;17.806;2022-07-15T04:30:06;12.60;99.90
35668;DHT22;22158;59.280;17.806;2022-07-15T04:32:32;12.60;99.90
35668;DHT22;22158;59.280;17.806;2022-07-15T04:34:58;12.60;99.90
35668;DHT22;22158;59.280;17.806;2022-07-15T04:37:23;12.60;99.90
35668;DHT22;22158;59.280;17.806;2022-07-15T04:39:49;12.60;99.90
35668;DHT22;22158;59.280;17.806;2022-07-15T04:42:15;12.70;99.90
35668;DHT22;22158;59.280;17.806;2022-07-15T04:44:41;12.60;99.90
35668;DHT22;22158;59.280;17.806;2022-07-15T04:47:06;12.60;99.90
35668;DHT22;22158;59.280;17.806;2022-07-15T04:49:32;12.60;99.90
35668;DHT22;22158;59.280;17.806;2022-07-15T04:52:16;12.60;99.90
35668;DHT22;22158;59.280;17.806;2022-07-15T04:54:42;12.70;99.90
35668;DHT22;22158;59.280;17.806;2022-07-15T04:57:09;12.80;99.90
35668;DHT22;22158;59.280;17.806;2022-07-15T04:59:37;12.80;99.90
35668;DHT22;22158;59.280;17.806;2022-07-15T05:02:03;12.90;99.90
35668;DHT22;22158;59.280;17.806;2022-07-15T05:04:28;13.00;99.90
35668;DHT22;22158;59.280;17.806;2022-07-15T05:06:54;13.00;99.90
35668;DHT22;22158;59.280;17.806;2022-07-15T05:09:20;13.10;99.90
35668;DHT22;22158;59.280;17.806;2022-07-15T05:11:45;13.20;99.90
35668;DHT22;22158;59.280;17.806;2022-07-15T05:14:11;13.10;99.90
35668;DHT22;22158;59.280;17.806;2022-07-15T05:16:37;13.10;99.90
35668;DHT22;22158;59.280;17.806;2022-07-15T05:19:02;13.20;99.90
35668;DHT22;22158;59.280;17.806;2022-07-15T05:21:29;13.20;99.90
35668;DHT22;22158;59.280;17.806;2022-07-15T05:23:55;13.20;99.90
35668;DHT22;22158;59.280;17.806;2022-07-15T05:26:21;13.20;99.90
35668;DHT22;22158;59.280;17.806;2022-07-15T05:28:47;13.20;99.90
35668;DHT22;22158;59.280;17.806;2022-07-15T05:31:12;13.30;99.90
35668;DHT22;22158;59.280;17.806;2022-07-15T05:33:38;13.30;99.90
35668;DHT22;22158;59.280;17.806;2022-07-15T05:36:04;13.30;99.90
35668;DHT22;22158;59.280;17.806;2022-07-15T05:38:30;13.30;99.90
35668;DHT22;22158;59.280;17.806;2022-07-15T05:40:56;13.30;99.90
35668;DHT22;22158;59.280;17.806;2022-07-15T05:43:22;13.30;99.90
35668;DHT22;22158;59.280;17.806;2022-07-15T05:45:49;13.30;99.90
35668;DHT22;22158;59.280;17.806;2022-07-15T05:48:14;13.20;99.90
35668;DHT22;22158;59.280;17.806;2022-07-15T05:50:40;13.20;99.90
35668;DHT22;22158;59.280;17.806;2022-07-15T05:53:06;13.10;99.90
35668;DHT22;22158;59.280;17.806;2022-07-15T05:55:31;13.20;99.90
35668;DHT22;22158;59.280;17.806;2022-07-15T05:57:57;13.30;99.90
35668;DHT22;22158;59.280;17.806;2022-07-15T06:00:23;13.40;99.90
35668;DHT22;22158;59.280;17.806;2022-07-15T06:02:48;13.50;99.90
35668;DHT22;22158;59.280;17.806;2022-07-15T06:05:14;13.50;99.90
35668;DHT22;22158;59.280;17.806;2022-07-15T06:07:40;13.60;99.90
35668;DHT22;22158;59.280;17.806;2022-07-15T06:10:08;13.80;99.90
35668;DHT22;22158;59.280;17.806;2022-07-15T06:12:34;13.80;99.30
35668;DHT22;22158;59.280;17.806;2022-07-15T06:15:00;13.80;99.90
35668;DHT22;22158;59.280;17.806;2022-07-15T06:17:25;13.90;99.90
35668;DHT22;22158;59.280;17.806;2022-07-15T06:19:51;13.90;99.90
35668;DHT22;22158;59.280;17.806;2022-07-15T06:22:17;13.90;99.30
35668;DHT22;22158;59.280;17.806;2022-07-15T06:24:42;14.00;98.80
35668;DHT22;22158;59.280;17.806;2022-07-15T06:27:08;14.00;99.10
35668;DHT22;22158;59.280;17.806;2022-07-15T06:29:34;14.10;99.20
35668;DHT22;22158;59.280;17.806;2022-07-15T06:31:59;14.20;99.90
35668;DHT22;22158;59.280;17.806;2022-07-15T06:34:25;14.30;99.30
35668;DHT22;22158;59.280;17.806;2022-07-15T06:36:51;14.30;99.20
35668;DHT22;22158;59.280;17.806;2022-07-15T06:39:17;14.30;98.20
35668;DHT22;22158;59.280;17.806;2022-07-15T06:41:43;14.20;97.40
35668;DHT22;22158;59.280;17.806;2022-07-15T06:44:08;14.10;97.80
35668;DHT22;22158;59.280;17.806;2022-07-15T06:46:34;14.10;97.90
35668;DHT22;22158;59.280;17.806;2022-07-15T06:49:00;14.10;98.30
35668;DHT22;22158;59.280;17.806;2022-07-15T06:51:26;14.00;97.80
35668;DHT22;22158;59.280;17.806;2022-07-15T06:53:51;13.80;98.30
35668;DHT22;22158;59.280;17.806;2022-07-15T06:56:17;13.90;98.60
35668;DHT22;22158;59.280;17.806;2022-07-15T06:58:43;13.90;98.60
35668;DHT22;22158;59.280;17.806;2022-07-15T07:01:09;14.00;99.40
35668;DHT22;22158;59.280;17.806;2022-07-15T07:03:34;14.20;99.60
35668;DHT22;22158;59.280;17.806;2022-07-15T07:06:00;14.30;99.70
35668;DHT22;22158;59.280;17.806;2022-07-15T07:08:26;14.30;97.80
35668;DHT22;22158;59.280;17.806;2022-07-15T07:10:53;14.20;98.30
35668;DHT22;22158;59.280;17.806;2022-07-15T07:13:18;14.20;99.10
35668;DHT22;22158;59.280;17.806;2022-07-15T07:15:44;14.10;97.40
35668;DHT22;22158;59.280;17.806;2022-07-15T07:18:10;14.10;98.40
35668;DHT22;22158;59.280;17.806;2022-07-15T07:20:36;14.00;98.80
35668;DHT22;22158;59.280;17.806;2022-07-15T07:23:03;14.10;98.60
35668;DHT22;22158;59.280;17.806;2022-07-15T07:25:28;14.30;98.70
35668;DHT22;22158;59.280;17.806;2022-07-15T07:27:55;14.50;98.00
35668;DHT22;22158;59.280;17.806;2022-07-15T07:30:20;14.60;98.70
35668;DHT22;22158;59.280;17.806;2022-07-15T07:32:46;14.70;98.90
35668;DHT22;22158;59.280;17.806;2022-07-15T07:35:12;14.80;97.20
35668;DHT22;22158;59.280;17.806;2022-07-15T07:37:38;14.70;96.40
35668;DHT22;22158;59.280;17.806;2022-07-15T07:40:08;14.70;97.60
35668;DHT22;22158;59.280;17.806;2022-07-15T07:42:34;14.80;98.10
35668;DHT22;22158;59.280;17.806;2022-07-15T07:45:00;14.90;97.00
35668;DHT22;22158;59.280;17.806;2022-07-15T07:47:27;14.80;97.50
35668;DHT22;22158;59.280;17.806;2022-07-15T07:49:52;14.90;97.40
35668;DHT22;22158;59.280;17.806;2022-07-15T07:52:18;14.90;97.80
35668;DHT22;22158;59.280;17.806;2022-07-15T07:54:44;14.80;98.10
35668;DHT22;22158;59.280;17.806;2022-07-15T07:57:12;14.70;98.50
35668;DHT22;22158;59.280;17.806;2022-07-15T07:59:38;14.80;97.70
35668;DHT22;22158;59.280;17.806;2022-07-15T08:02:04;14.90;97.40
35668;DHT22;22158;59.280;17.806;2022-07-15T08:04:30;15.00;97.10
35668;DHT22;22158;59.280;17.806;2022-07-15T08:06:56;15.10;97.00
35668;DHT22;22158;59.280;17.806;2022-07-15T08:09:22;15.00;96.90
35668;DHT22;22158;59.280;17.806;2022-07-15T08:11:49;15.10;96.40
35668;DHT22;22158;59.280;17.806;2022-07-15T08:14:15;15.10;96.30
35668;DHT22;22158;59.280;17.806;2022-07-15T08:16:40;15.30;97.10
35668;DHT22;22158;59.280;17.806;2022-07-15T08:19:08;15.50;96.80
35668;DHT22;22158;59.280;17.806;2022-07-15T08:21:34;15.60;97.10
35668;DHT22;22158;59.280;17.806;2022-07-15T08:24:00;15.70;96.30
35668;DHT22;22158;59.280;17.806;2022-07-15T08:26:26;15.80;96.10
35668;DHT22;22158;59.280;17.806;2022-07-15T08:28:52;15.90;95.70
35668;DHT22;22158;59.280;17.806;2022-07-15T08:31:18;15.80;95.40
35668;DHT22;22158;59.280;17.806;2022-07-15T08:33:45;15.90;95.60
35668;DHT22;22158;59.280;17.806;2022-07-15T08:36:11;15.90;95.70
35668;DHT22;22158;59.280;17.806;2022-07-15T08:38:37;15.90;96.30
35668;DHT22;22158;59.280;17.806;2022-07-15T08:41:03;15.80;95.40
35668;DHT22;22158;59.280;17.806;2022-07-15T08:43:29;15.70;96.80
35668;DHT22;22158;59.280;17.806;2022-07-15T08:45:55;15.50;96.00
35668;DHT22;22158;59.280;17.806;2022-07-15T08:48:28;15.50;96.60
35668;DHT22;22158;59.280;17.806;2022-07-15T08:50:59;15.60;96.80
35668;DHT22;22158;59.280;17.806;2022-07-15T08:53:27;15.60;96.00
35668;DHT22;22158;59.280;17.806;2022-07-15T08:55:56;15.60;95.80
35668;DHT22;22158;59.280;17.806;2022-07-15T08:58:22;15.80;96.50
35668;DHT22;22158;59.280;17.806;2022-07-15T09:00:48;16.00;95.90
35668;DHT22;22158;59.280;17.806;2022-07-15T09:03:14;16.20;95.80
35668;DHT22;22158;59.280;17.806;2022-07-15T09:05:40;16.30;95.30
35668;DHT22;22158;59.280;17.806;2022-07-15T09:08:09;16.50;94.50
35668;DHT22;22158;59.280;17.806;2022-07-15T09:10:43;16.50;95.20
35668;DHT22;22158;59.280;17.806;2022-07-15T09:13:36;16.50;94.80
35668;DHT22;22158;59.280;17.806;2022-07-15T09:16:12;16.50;94.60
35668;DHT22;22158;59.280;17.806;2022-07-15T09:18:45;16.50;93.80
35668;DHT22;22158;59.280;17.806;2022-07-15T09:23:45;16.60;93.80
35668;DHT22;22158;59.280;17.806;2022-07-15T09:26:34;16.60;94.00
35668;DHT22;22158;59.280;17.806;2022-07-15T09:29:03;16.60;95.20
35668;DHT22;22158;59.280;17.806;2022-07-15T09:31:58;16.50;94.60
35668;DHT22;22158;59.280;17.806;2022-07-15T09:35:01;16.40;93.90
35668;DHT22;22158;59.280;17.806;2022-07-15T09:37:27;16.20;94.00
35668;DHT22;22158;59.280;17.806;2022-07-15T09:39:55;16.10;95.00
35668;DHT22;22158;59.280;17.806;2022-07-15T09:42:21;16.20;94.90
35668;DHT22;22158;59.280;17.806;2022-07-15T09:44:47;16.50;95.10
35668;DHT22;22158;59.280;17.806;2022-07-15T09:47:17;16.60;93.70
35668;DHT22;22158;59.280;17.806;2022-07-15T09:49:50;16.70;94.00
35668;DHT22;22158;59.280;17.806;2022-07-15T09:52:16;16.70;94.10
35668;DHT22;22158;59.280;17.806;2022-07-15T09:54:46;16.70;95.00
35668;DHT22;22158;59.280;17.806;2022-07-15T09:57:13;16.40;94.40
35668;DHT22;22158;59.280;17.806;2022-07-15T09:59:43;16.30;94.80
35668;DHT22;22158;59.280;17.806;2022-07-15T10:02:09;16.20;94.20
35668;DHT22;22158;59.280;17.806;2022-07-15T10:04:36;16.30;93.60
35668;DHT22;22158;59.280;17.806;2022-07-15T10:07:02;16.40;94.10
35668;DHT22;22158;59.280;17.806;2022-07-15T10:09:32;16.40;94.50
35668;DHT22;22158;59.280;17.806;2022-07-15T10:12:23;16.50;93.70
35668;DHT22;22158;59.280;17.806;2022-07-15T10:14:51;16.50;95.10
35668;DHT22;22158;59.280;17.806;2022-07-15T10:30:43;15.80;93.20
35668;DHT22;22158;59.280;17.806;2022-07-15T10:33:16;15.80;94.00
35668;DHT22;22158;59.280;17.806;2022-07-15T10:35:50;16.00;94.80
35668;DHT22;22158;59.280;17.806;2022-07-15T10:43:44;17.00;92.50
35668;DHT22;22158;59.280;17.806;2022-07-15T10:48:53;17.40;92.70
35668;DHT22;22158;59.280;17.806;2022-07-15T10:54:07;17.90;91.60
35668;DHT22;22158;59.280;17.806;2022-07-15T10:56:41;17.80;91.10
35668;DHT22;22158;59.280;17.806;2022-07-15T10:59:14;17.90;90.50
35668;DHT22;22158;59.280;17.806;2022-07-15T11:02:10;18.10;91.00
35668;DHT22;22158;59.280;17.806;2022-07-15T11:04:29;17.70;88.90
35668;DHT22;22158;59.280;17.806;2022-07-15T11:15:10;17.00;90.40
35668;DHT22;22158;59.280;17.806;2022-07-15T11:17:41;16.90;92.10
35668;DHT22;22158;59.280;17.806;2022-07-15T11:20:18;17.00;92.00
35668;DHT22;22158;59.280;17.806;2022-07-15T11:22:46;17.40;91.90
35668;DHT22;22158;59.280;17.806;2022-07-15T11:25:39;17.90;93.50
35668;DHT22;22158;59.280;17.806;2022-07-15T11:28:13;18.40;91.20
35668;DHT22;22158;59.280;17.806;2022-07-15T11:30:45;18.70;87.00
35668;DHT22;22158;59.280;17.806;2022-07-15T11:33:19;18.70;88.80
35668;DHT22;22158;59.280;17.806;2022-07-15T11:35:50;18.50;89.30
35668;DHT22;22158;59.280;17.806;2022-07-15T11:38:22;18.70;89.20
35668;DHT22;22158;59.280;17.806;2022-07-15T11:40:54;18.30;86.00
35668;DHT22;22158;59.280;17.806;2022-07-15T11:43:39;18.10;90.30
35668;DHT22;22158;59.280;17.806;2022-07-15T11:46:25;18.10;90.20
35668;DHT22;22158;59.280;17.806;2022-07-15T11:48:51;18.10;90.00
35668;DHT22;22158;59.280;17.806;2022-07-15T11:51:24;18.20;91.00
35668;DHT22;22158;59.280;17.806;2022-07-15T11:53:50;17.90;91.20
35668;DHT22;22158;59.280;17.806;2022-07-15T11:56:16;18.00;90.60
35668;DHT22;22158;59.280;17.806;2022-07-15T11:58:43;18.50;90.10
35668;DHT22;22158;59.280;17.806;2022-07-15T12:01:14;18.90;90.70
35668;DHT22;22158;59.280;17.806;2022-07-15T12:03:41;18.80;85.80
35668;DHT22;22158;59.280;17.806;2022-07-15T12:11:25;19.00;86.10
35668;DHT22;22158;59.280;17.806;2022-07-15T12:14:07;19.50;89.50
35668;DHT22;22158;59.280;17.806;2022-07-15T12:16:51;19.60;87.90
35668;DHT22;22158;59.280;17.806;2022-07-15T12:19:19;20.00;87.10
35668;DHT22;22158;59.280;17.806;2022-07-15T12:21:48;20.30;86.20
35668;DHT22;22158;59.280;17.806;2022-07-15T12:24:17;20.40;86.70
35668;DHT22;22158;59.280;17.806;2022-07-15T12:26:57;20.50;85.60
35668;DHT22;22158;59.280;17.806;2022-07-15T12:29:25;20.50;81.10
35668;DHT22;22158;59.280;17.806;2022-07-15T12:31:59;20.10;84.40
35668;DHT22;22158;59.280;17.806;2022-07-15T12:40:09;19.10;84.10
35668;DHT22;22158;59.280;17.806;2022-07-15T12:42:44;19.20;84.10
35668;DHT22;22158;59.280;17.806;2022-07-15T12:45:22;18.70;86.50
35668;DHT22;22158;59.280;17.806;2022-07-15T12:48:01;18.70;88.80
35668;DHT22;22158;59.280;17.806;2022-07-15T12:50:29;18.50;91.40
35668;DHT22;22158;59.280;17.806;2022-07-15T12:52:56;18.30;90.60
35668;DHT22;22158;59.280;17.806;2022-07-15T12:55:24;18.40;87.40
35668;DHT22;22158;59.280;17.806;2022-07-15T12:57:51;18.50;90.80
35668;DHT22;22158;59.280;17.806;2022-07-15T13:00:25;18.70;88.20
35668;DHT22;22158;59.280;17.806;2022-07-15T13:03:10;18.40;90.10
35668;DHT22;22158;59.280;17.806;2022-07-15T13:05:44;18.60;90.70
35668;DHT22;22158;59.280;17.806;2022-07-15T13:08:15;18.70;88.40
35668;DHT22;22158;59.280;17.806;2022-07-15T13:10:44;18.90;90.00
35668;DHT22;22158;59.280;17.806;2022-07-15T13:13:11;19.40;89.10
35668;DHT22;22158;59.280;17.806;2022-07-15T13:15:38;19.80;85.80
35668;DHT22;22158;59.280;17.806;2022-07-15T13:18:04;20.00;84.20
35668;DHT22;22158;59.280;17.806;2022-07-15T13:20:30;20.00;87.10
35668;DHT22;22158;59.280;17.806;2022-07-15T13:22:56;20.00;84.40
35668;DHT22;22158;59.280;17.806;2022-07-15T13:25:22;20.00;83.40
35668;DHT22;22158;59.280;17.806;2022-07-15T13:27:48;20.30;85.80
35668;DHT22;22158;59.280;17.806;2022-07-15T13:30:15;20.40;84.60
35668;DHT22;22158;59.280;17.806;2022-07-15T13:32:41;20.40;86.70
35668;DHT22;22158;59.280;17.806;2022-07-15T13:35:08;20.70;83.30
35668;DHT22;22158;59.280;17.806;2022-07-15T13:37:34;20.70;82.20
35668;DHT22;22158;59.280;17.806;2022-07-15T13:40:01;20.70;78.00
35668;DHT22;22158;59.280;17.806;2022-07-15T13:42:27;21.20;83.50
35668;DHT22;22158;59.280;17.806;2022-07-15T13:44:54;21.60;82.30
35668;DHT22;22158;59.280;17.806;2022-07-15T13:47:20;21.70;83.10
35668;DHT22;22158;59.280;17.806;2022-07-15T13:49:46;21.70;76.50
35668;DHT22;22158;59.280;17.806;2022-07-15T13:52:31;21.40;78.60
35668;DHT22;22158;59.280;17.806;2022-07-15T13:54:57;21.50;78.80
35668;DHT22;22158;59.280;17.806;2022-07-15T13:57:22;21.40;77.30
35668;DHT22;22158;59.280;17.806;2022-07-15T13:59:48;20.90;76.90
35668;DHT22;22158;59.280;17.806;2022-07-15T14:02:14;20.30;77.20
35668;DHT22;22158;59.280;17.806;2022-07-15T14:04:40;19.70;77.10
35668;DHT22;22158;59.280;17.806;2022-07-15T14:07:06;19.90;80.80
35668;DHT22;22158;59.280;17.806;2022-07-15T14:09:33;20.10;79.40
35668;DHT22;22158;59.280;17.806;2022-07-15T14:11:58;20.00;79.60
35668;DHT22;22158;59.280;17.806;2022-07-15T14:14:24;20.50;80.10
35668;DHT22;22158;59.280;17.806;2022-07-15T14:16:52;20.70;79.20
35668;DHT22;22158;59.280;17.806;2022-07-15T14:19:18;20.60;79.80
35668;DHT22;22158;59.280;17.806;2022-07-15T14:21:43;20.00;78.10
35668;DHT22;22158;59.280;17.806;2022-07-15T14:24:09;19.80;81.60
35668;DHT22;22158;59.280;17.806;2022-07-15T14:26:35;19.70;80.30
35668;DHT22;22158;59.280;17.806;2022-07-15T14:29:01;19.40;80.30
35668;DHT22;22158;59.280;17.806;2022-07-15T14:31:27;19.50;84.10
35668;DHT22;22158;59.280;17.806;2022-07-15T14:33:52;19.90;83.80
35668;DHT22;22158;59.280;17.806;2022-07-15T14:36:18;20.00;78.50
35668;DHT22;22158;59.280;17.806;2022-07-15T14:38:44;19.70;79.80
35668;DHT22;22158;59.280;17.806;2022-07-15T14:41:09;19.10;78.10
35668;DHT22;22158;59.280;17.806;2022-07-15T14:43:35;18.70;80.30
35668;DHT22;22158;59.280;17.806;2022-07-15T14:46:01;18.70;81.60
35668;DHT22;22158;59.280;17.806;2022-07-15T14:48:27;18.60;80.40
35668;DHT22;22158;59.280;17.806;2022-07-15T14:50:54;18.60;80.50
35668;DHT22;22158;59.280;17.806;2022-07-15T14:53:20;18.10;82.00
35668;DHT22;22158;59.280;17.806;2022-07-15T14:55:45;17.70;85.70
35668;DHT22;22158;59.280;17.806;2022-07-15T14:58:11;17.70;88.50
35668;DHT22;22158;59.280;17.806;2022-07-15T15:00:41;17.30;92.00
35668;DHT22;22158;59.280;17.806;2022-07-15T15:03:07;17.10;92.70
35668;DHT22;22158;59.280;17.806;2022-07-15T15:05:33;17.00;94.40
35668;DHT22;22158;59.280;17.806;2022-07-15T15:07:59;17.00;97.40
35668;DHT22;22158;59.280;17.806;2022-07-15T15:10:25;17.00;94.50
35668;DHT22;22158;59.280;17.806;2022-07-15T15:12:50;17.20;95.70
35668;DHT22;22158;59.280;17.806;2022-07-15T15:15:16;17.30;96.00
35668;DHT22;22158;59.280;17.806;2022-07-15T15:17:42;17.30;96.40
35668;DHT22;22158;59.280;17.806;2022-07-15T15:20:09;17.30;96.30
35668;DHT22;22158;59.280;17.806;2022-07-15T15:22:35;17.30;96.80
35668;DHT22;22158;59.280;17.806;2022-07-15T15:25:02;17.10;95.20
35668;DHT22;22158;59.280;17.806;2022-07-15T15:27:27;17.20;94.70
35668;DHT22;22158;59.280;17.806;2022-07-15T15:29:53;17.10;95.60
35668;DHT22;22158;59.280;17.806;2022-07-15T15:32:19;17.00;94.00
35668;DHT22;22158;59.280;17.806;2022-07-15T15:34:45;17.00;95.50
35668;DHT22;22158;59.280;17.806;2022-07-15T15:37:11;17.10;95.50
35668;DHT22;22158;59.280;17.806;2022-07-15T15:39:37;17.10;95.20
35668;DHT22;22158;59.280;17.806;2022-07-15T15:42:07;17.00;96.20
35668;DHT22;22158;59.280;17.806;2022-07-15T15:44:34;16.80;93.70
35668;DHT22;22158;59.280;17.806;2022-07-15T15:47:01;16.70;94.40
35668;DHT22;22158;59.280;17.806;2022-07-15T15:49:26;16.60;94.20
35668;DHT22;22158;59.280;17.806;2022-07-15T15:51:52;16.80;94.50
35668;DHT22;22158;59.280;17.806;2022-07-15T15:54:18;17.00;93.90
35668;DHT22;22158;59.280;17.806;2022-07-15T15:56:44;17.20;95.00
35668;DHT22;22158;59.280;17.806;2022-07-15T15:59:11;17.20;93.50
35668;DHT22;22158;59.280;17.806;2022-07-15T16:01:36;17.20;91.60
35668;DHT22;22158;59.280;17.806;2022-07-15T16:04:02;17.10;92.20